Time;durP1;ratioP1;P1;durP2;ratioP2;P2;SDS_P1;SDS_P2;PMS_P1;PMS_P2;Temp;Humidity;BMP_temperature;BMP_pressure;BME280_temperature;BME280_humidity;BME280_pressure;Samples;Min_cycle;Max_cycle;Signal;HPM_P1;HPM_P2
2021/10/09 00:01:42;;;;;;;6.03;5.53;;;;;16.20;99215.00;;;;5081788;28;20200;-88
2021/10/09 00:04:09;;;;;;;6.60;6.00;;;;;16.10;99213.00;;;;5048105;28;20223;-89
2021/10/09 00:06:36;;;;;;;6.10;5.60;;;;;16.10;99212.00;;;;5048337;28;20194;-89
2021/10/09 00:09:03;;;;;;;6.30;5.70;;;;;16.10;99215.00;;;;5064536;28;20194;-88
2021/10/09 00:11:38;;;;;;;6.33;5.73;;;;;16.20;99207.00;;;;5064253;28;20193;-89
2021/10/09 00:14:11;;;;;;;6.07;5.57;;;;;16.10;99207.00;;;;5081124;28;20201;-88
2021/10/09 00:16:39;;;;;;;6.57;5.97;;;;;16.10;99208.00;;;;5080464;28;20191;-89
2021/10/09 00:19:05;;;;;;;7.63;6.47;;;;;16.10;99188.00;;;;5046983;28;20199;-89
2021/10/09 00:21:32;;;;;;;6.90;6.20;;;;;16.10;99205.00;;;;5063678;28;20209;-88
2021/10/09 00:24:00;;;;;;;6.30;5.70;;;;;16.10;99199.00;;;;5047292;28;20233;-89
2021/10/09 00:26:27;;;;;;;7.03;6.40;;;;;16.10;99210.00;;;;5078290;28;20199;-88
2021/10/09 00:28:54;;;;;;;6.70;6.10;;;;;16.10;99202.00;;;;5043773;28;20274;-89
2021/10/09 00:31:21;;;;;;;6.30;5.80;;;;;16.10;99212.00;;;;5060186;28;20196;-89
2021/10/09 00:33:47;;;;;;;6.40;5.90;;;;;16.10;99220.00;;;;5043698;28;20203;-89
2021/10/09 00:36:14;;;;;;;7.17;6.53;;;;;16.10;99212.00;;;;5043663;28;20191;-88
2021/10/09 00:38:40;;;;;;;7.03;6.43;;;;;16.10;99217.00;;;;5044096;28;20204;-89
2021/10/09 00:41:07;;;;;;;7.00;6.30;;;;;16.10;99220.00;;;;5060161;28;20189;-89
2021/10/09 00:43:33;;;;;;;6.67;6.00;;;;;16.10;99201.00;;;;5060098;28;20221;-89
2021/10/09 00:46:02;;;;;;;6.87;6.20;;;;;16.10;99216.00;;;;5043488;28;20199;-89
2021/10/09 00:48:32;;;;;;;6.40;5.90;;;;;16.10;99205.00;;;;5043380;28;20195;-89
2021/10/09 00:50:59;;;;;;;6.87;6.27;;;;;16.10;99217.00;;;;5043365;28;20197;-89
2021/10/09 00:53:29;;;;;;;6.23;5.33;;;;;16.10;99209.00;;;;5077697;28;20209;-89
2021/10/09 00:55:56;;;;;;;6.93;6.33;;;;;16.10;99199.00;;;;5043118;28;20201;-89
2021/10/09 00:58:23;;;;;;;7.37;6.67;;;;;16.10;99208.00;;;;5043184;28;20196;-89
2021/10/09 01:00:50;;;;;;;6.90;5.93;;;;;16.10;99215.00;;;;5043140;28;20210;-88
2021/10/09 01:03:17;;;;;;;6.63;6.03;;;;;16.10;99205.00;;;;5075548;28;20189;-89
2021/10/09 01:05:44;;;;;;;6.50;5.90;;;;;16.00;99204.00;;;;5059418;28;20224;-88
2021/10/09 01:08:11;;;;;;;6.47;5.90;;;;;16.00;99204.00;;;;5076118;28;20234;-89
2021/10/09 01:10:38;;;;;;;6.73;6.13;;;;;16.00;99215.00;;;;5044160;28;20191;-88
2021/10/09 01:13:05;;;;;;;6.67;5.97;;;;;16.00;99208.00;;;;5059542;28;20199;-88
2021/10/09 01:15:34;;;;;;;6.90;6.30;;;;;16.00;99209.00;;;;5060824;28;20228;-88
2021/10/09 01:18:10;;;;;;;6.67;6.07;;;;;16.00;99200.00;;;;5047533;28;20229;-89
2021/10/09 01:20:46;;;;;;;7.00;6.30;;;;;16.00;99197.00;;;;5047520;28;20495;-89
2021/10/09 01:23:14;;;;;;;7.07;6.47;;;;;16.00;99194.00;;;;5079324;28;20290;-89
2021/10/09 01:25:41;;;;;;;6.43;5.90;;;;;16.00;99200.00;;;;5046983;28;20226;-89
2021/10/09 01:28:08;;;;;;;7.23;6.53;;;;;16.00;99197.00;;;;5046393;28;20514;-89
2021/10/09 01:30:35;;;;;;;6.77;6.27;;;;;16.00;99197.00;;;;5046357;28;20199;-89
2021/10/09 01:33:03;;;;;;;6.77;6.17;;;;;16.00;99199.00;;;;5063213;28;20188;-89
2021/10/09 01:35:30;;;;;;;7.17;6.13;;;;;16.00;99186.00;;;;5046237;28;20190;-89
2021/10/09 01:37:57;;;;;;;7.17;6.57;;;;;16.00;99185.00;;;;5062597;28;20192;-89
2021/10/09 01:40:24;;;;;;;6.63;6.13;;;;;16.00;99182.00;;;;5046745;28;20187;-89
2021/10/09 01:42:51;;;;;;;7.33;6.63;;;;;16.00;99165.00;;;;5078848;28;20194;-89
2021/10/09 01:45:17;;;;;;;7.00;6.17;;;;;16.00;99176.00;;;;5046126;28;20533;-89
2021/10/09 01:47:44;;;;;;;6.93;6.33;;;;;16.00;99185.00;;;;5062838;28;20285;-89
2021/10/09 01:50:12;;;;;;;7.30;6.60;;;;;16.00;99188.00;;;;5046012;28;20643;-90
2021/10/09 01:52:39;;;;;;;6.80;6.20;;;;;16.00;99182.00;;;;5061797;28;20225;-90
2021/10/09 01:55:07;;;;;;;6.73;6.13;;;;;16.00;99177.00;;;;5045516;28;20216;-90
2021/10/09 01:57:34;;;;;;;6.80;6.20;;;;;15.90;99169.00;;;;5046558;28;20197;-90
2021/10/09 02:00:01;;;;;;;7.33;6.60;;;;;16.00;99183.00;;;;5062397;28;20665;-90
2021/10/09 02:02:44;;;;;;;6.47;5.97;;;;;16.00;99184.00;;;;5064874;28;20206;-90
2021/10/09 02:05:12;;;;;;;7.50;6.80;;;;;16.00;99171.00;;;;5046414;28;20267;-90
2021/10/09 02:07:38;;;;;;;6.43;5.83;;;;;16.00;99169.00;;;;5045210;28;20198;-88
2021/10/09 02:10:06;;;;;;;7.30;6.70;;;;;16.00;99164.00;;;;5045823;28;20624;-90
2021/10/09 02:12:33;;;;;;;6.87;6.27;;;;;15.90;99168.00;;;;5078247;28;20637;-90
2021/10/09 02:15:10;;;;;;;7.30;6.70;;;;;15.90;99176.00;;;;5043451;28;20188;-89
2021/10/09 02:25:45;;;;;;;7.00;6.40;;;;;15.90;99173.00;;;;5077874;28;20658;-89
2021/10/09 02:28:18;;;;;;;7.37;6.77;;;;;15.90;99176.00;;;;5044220;28;20190;-90
2021/10/09 02:30:45;;;;;;;7.27;6.57;;;;;15.90;99150.00;;;;5041608;28;20240;-89
2021/10/09 02:33:13;;;;;;;6.80;6.20;;;;;15.90;99160.00;;;;5074683;28;20199;-89
2021/10/09 02:35:40;;;;;;;7.27;6.60;;;;;15.90;99155.00;;;;5074562;28;20224;-89
2021/10/09 02:38:08;;;;;;;6.70;6.10;;;;;15.90;99165.00;;;;5041833;28;20208;-89
2021/10/09 02:40:40;;;;;;;7.00;6.40;;;;;15.90;99170.00;;;;5041296;28;20229;-90
2021/10/09 02:43:08;;;;;;;6.90;6.40;;;;;15.90;99167.00;;;;5074524;28;20320;-90
2021/10/09 02:45:36;;;;;;;7.33;6.73;;;;;15.90;99157.00;;;;5057599;28;20306;-90
2021/10/09 02:48:04;;;;;;;7.13;6.53;;;;;15.90;99163.00;;;;5041238;28;20198;-89
2021/10/09 02:50:36;;;;;;;7.27;6.67;;;;;15.90;99153.00;;;;5041313;28;20658;-89
2021/10/09 02:53:03;;;;;;;7.77;7.00;;;;;15.90;99154.00;;;;5041154;28;20198;-90
2021/10/09 02:55:30;;;;;;;7.40;6.80;;;;;15.90;99149.00;;;;5041016;28;20256;-90
2021/10/09 02:57:56;;;;;;;7.30;6.70;;;;;15.90;99159.00;;;;5041033;28;20202;-90
2021/10/09 03:00:23;;;;;;;7.60;7.00;;;;;15.90;99164.00;;;;5057645;28;20229;-89
2021/10/09 03:02:51;;;;;;;7.33;6.73;;;;;15.90;99156.00;;;;5074096;28;20227;-89
2021/10/09 03:05:18;;;;;;;7.60;6.90;;;;;15.90;99151.00;;;;5040860;28;20244;-89
2021/10/09 03:07:45;;;;;;;7.40;6.70;;;;;15.90;99160.00;;;;5041710;28;20200;-90
2021/10/09 03:10:12;;;;;;;7.23;6.63;;;;;15.90;99148.00;;;;5074510;28;20196;-90
2021/10/09 03:12:41;;;;;;;8.00;7.27;;;;;15.90;99147.00;;;;5041771;28;20194;-90
2021/10/09 03:15:10;;;;;;;7.53;6.93;;;;;15.90;99156.00;;;;5059584;28;20697;-90
2021/10/09 03:17:37;;;;;;;7.20;6.60;;;;;15.90;99156.00;;;;5042325;28;20629;-90
2021/10/09 03:20:06;;;;;;;7.73;6.93;;;;;15.90;99156.00;;;;5076467;28;20193;-90
2021/10/09 03:22:33;;;;;;;7.73;6.93;;;;;15.90;99161.00;;;;5042369;28;20296;-90
2021/10/09 03:25:00;;;;;;;7.57;6.97;;;;;15.90;99147.00;;;;5058890;28;20267;-90
2021/10/09 03:27:27;;;;;;;7.40;6.80;;;;;15.90;99151.00;;;;5041654;28;20201;-90
2021/10/09 03:29:54;;;;;;;6.67;6.13;;;;;15.90;99162.00;;;;5042276;28;20277;-90
2021/10/09 03:32:21;;;;;;;7.70;7.00;;;;;15.90;99155.00;;;;5043078;28;20187;-90
2021/10/09 03:34:48;;;;;;;7.77;7.07;;;;;15.80;99155.00;;;;5058754;28;20247;-90
2021/10/09 03:37:15;;;;;;;7.97;7.30;;;;;15.80;99159.00;;;;5074723;28;20618;-90
2021/10/09 03:39:44;;;;;;;7.80;7.00;;;;;15.80;99166.00;;;;5041484;28;20199;-91
2021/10/09 03:42:15;;;;;;;7.30;6.70;;;;;15.80;99149.00;;;;5041356;28;20274;-90
2021/10/09 03:44:52;;;;;;;7.90;7.20;;;;;15.80;99163.00;;;;5041778;28;20545;-90
2021/10/09 03:47:29;;;;;;;7.60;6.97;;;;;15.80;99162.00;;;;5041288;28;20219;-90
2021/10/09 03:50:07;;;;;;;8.13;7.43;;;;;15.80;99167.00;;;;5041343;28;20187;-90
2021/10/09 03:52:36;;;;;;;7.17;6.50;;;;;15.80;99160.00;;;;5074714;28;20189;-91
2021/10/09 03:55:06;;;;;;;7.30;6.60;;;;;15.80;99176.00;;;;5041398;28;20190;-91
2021/10/09 03:57:34;;;;;;;7.90;7.20;;;;;15.80;99176.00;;;;5074683;28;20205;-91
2021/10/09 04:00:06;;;;;;;8.30;7.50;;;;;15.80;99148.00;;;;5041033;28;20189;-90
2021/10/09 04:02:41;;;;;;;7.20;6.60;;;;;15.80;99168.00;;;;5059075;28;20602;-91
2021/10/09 04:05:12;;;;;;;7.77;6.97;;;;;15.80;99173.00;;;;5042183;28;20214;-90
2021/10/09 04:07:39;;;;;;;7.63;6.93;;;;;15.80;99170.00;;;;5057934;28;20574;-91
2021/10/09 04:10:09;;;;;;;7.80;7.10;;;;;15.80;99170.00;;;;5057936;28;20560;-91
2021/10/09 04:12:35;;;;;;;8.00;7.30;;;;;15.80;99170.00;;;;5040980;28;20195;-91
2021/10/09 04:15:06;;;;;;;7.73;7.00;;;;;15.80;99168.00;;;;5075666;28;20181;-91
2021/10/09 04:17:34;;;;;;;8.37;7.57;;;;;15.80;99174.00;;;;5041127;28;20225;-91
2021/10/09 04:20:04;;;;;;;7.77;7.07;;;;;15.80;99175.00;;;;5057836;28;20627;-91
2021/10/09 04:22:30;;;;;;;8.30;7.60;;;;;15.80;99178.00;;;;5040746;28;20284;-91
2021/10/09 04:24:57;;;;;;;7.07;6.47;;;;;15.80;99159.00;;;;5040923;28;20222;-90
2021/10/09 04:27:24;;;;;;;7.37;6.70;;;;;15.80;99170.00;;;;5040643;28;20519;-91
2021/10/09 04:29:51;;;;;;;7.67;7.07;;;;;15.80;99163.00;;;;5040957;28;20191;-91
2021/10/09 04:32:18;;;;;;;7.67;7.07;;;;;15.80;99176.00;;;;5040956;28;20648;-91
2021/10/09 04:34:44;;;;;;;7.20;6.60;;;;;15.80;99180.00;;;;5057287;28;20275;-91
2021/10/09 04:37:11;;;;;;;7.10;6.50;;;;;15.80;99180.00;;;;5073919;28;20286;-91
2021/10/09 04:39:38;;;;;;;7.70;7.00;;;;;15.80;99183.00;;;;5060672;28;20213;-91
2021/10/09 04:42:06;;;;;;;7.97;7.30;;;;;15.80;99172.00;;;;5077136;28;20291;-91
2021/10/09 04:44:33;;;;;;;7.93;7.23;;;;;15.80;99187.00;;;;5043972;28;20194;-91
2021/10/09 04:47:01;;;;;;;8.23;7.53;;;;;15.80;99167.00;;;;5076917;28;20531;-91
2021/10/09 04:49:29;;;;;;;7.70;7.00;;;;;15.80;99178.00;;;;5044698;28;20206;-91
2021/10/09 04:51:58;;;;;;;7.40;6.80;;;;;15.80;99172.00;;;;5044951;28;20204;-91
2021/10/09 04:54:25;;;;;;;8.03;7.33;;;;;15.80;99168.00;;;;5043651;28;20533;-91
2021/10/09 04:56:51;;;;;;;7.57;6.87;;;;;15.80;99165.00;;;;5076924;28;20189;-91
2021/10/09 04:59:18;;;;;;;7.37;6.67;;;;;15.80;99171.00;;;;5078042;28;20197;-91
2021/10/09 05:01:46;;;;;;;8.03;7.33;;;;;15.70;99171.00;;;;5044060;28;20225;-91
2021/10/09 05:04:14;;;;;;;7.87;7.27;;;;;15.70;99168.00;;;;5044593;28;20218;-91
2021/10/09 05:06:41;;;;;;;7.57;6.97;;;;;15.70;99167.00;;;;5043148;28;20213;-91
2021/10/09 05:09:08;;;;;;;8.00;7.30;;;;;15.70;99176.00;;;;5043280;28;20544;-91
2021/10/09 05:11:35;;;;;;;7.57;6.97;;;;;15.80;99171.00;;;;5059929;28;20196;-91
2021/10/09 05:14:02;;;;;;;7.67;6.97;;;;;15.80;99158.00;;;;5043420;28;20214;-91
2021/10/09 05:16:29;;;;;;;7.80;7.10;;;;;15.80;99181.00;;;;5059747;28;20634;-91
2021/10/09 05:18:56;;;;;;;8.03;7.37;;;;;15.80;99176.00;;;;5059625;28;20597;-91
2021/10/09 05:21:22;;;;;;;7.47;6.87;;;;;15.80;99182.00;;;;5060444;28;20189;-91
2021/10/09 05:23:49;;;;;;;7.63;6.93;;;;;15.80;99180.00;;;;5043034;28;20208;-91
2021/10/09 05:26:16;;;;;;;7.50;6.90;;;;;15.80;99174.00;;;;5042826;28;20214;-91
2021/10/09 05:28:45;;;;;;;7.27;6.67;;;;;15.80;99185.00;;;;5042782;28;20190;-91
2021/10/09 05:31:29;;;;;;;7.53;6.90;;;;;15.80;99191.00;;;;5043346;28;20275;-91
2021/10/09 05:33:58;;;;;;;7.97;7.27;;;;;15.80;99178.00;;;;5059281;28;20288;-92
2021/10/09 05:36:27;;;;;;;7.93;7.23;;;;;15.90;99185.00;;;;5075863;28;20195;-92
2021/10/09 05:38:54;;;;;;;7.73;7.13;;;;;16.00;99182.00;;;;5042686;28;20198;-92
2021/10/09 05:41:21;;;;;;;7.57;6.97;;;;;16.00;99178.00;;;;5042755;28;20244;-92
2021/10/09 05:43:52;;;;;;;7.47;6.87;;;;;16.10;99176.00;;;;5060028;28;20194;-92
2021/10/09 05:46:20;;;;;;;7.27;6.73;;;;;16.10;99191.00;;;;5042453;28;20215;-92
2021/10/09 05:48:47;;;;;;;7.27;6.67;;;;;16.20;99184.00;;;;5058909;28;20233;-92
2021/10/09 05:51:21;;;;;;;8.00;7.30;;;;;16.20;99184.00;;;;5043364;28;20203;-91
2021/10/09 05:56:48;;;;;;;8.10;7.40;;;;;16.20;99196.00;;;;5075541;28;20225;-91
2021/10/09 06:00:01;;;;;;;8.07;7.37;;;;;16.30;99197.00;;;;5075437;28;20186;-91
2021/10/09 06:42:05;;;;;;;7.50;6.90;;;;;16.50;99237.00;;;;5059108;28;20197;-92
2021/10/09 06:44:22;;;;;;;8.23;7.53;;;;;16.50;99241.00;;;;5058885;28;20278;-92
2021/10/09 06:59:46;;;;;;;8.43;7.67;;;;;16.60;99251.00;;;;5057728;28;20193;-91
2021/10/09 07:02:13;;;;;;;7.97;7.27;;;;;16.60;99250.00;;;;5040767;28;20189;-92
2021/10/09 07:04:40;;;;;;;8.10;7.50;;;;;16.60;99245.00;;;;5041403;28;20201;-91
2021/10/09 07:07:09;;;;;;;8.43;7.57;;;;;16.60;99260.00;;;;5040931;28;20218;-91
2021/10/09 07:09:48;;;;;;;8.50;7.80;;;;;16.60;99256.00;;;;5043250;28;20235;-91
2021/10/09 07:12:18;;;;;;;8.50;7.57;;;;;16.60;99248.00;;;;5041378;28;20195;-91
2021/10/09 07:14:44;;;;;;;8.30;7.50;;;;;16.50;99269.00;;;;5041700;28;20598;-92
2021/10/09 07:17:12;;;;;;;8.70;7.80;;;;;16.50;99270.00;;;;5042097;28;20292;-91
2021/10/09 07:19:38;;;;;;;8.80;8.03;;;;;16.50;99279.00;;;;5041793;28;20190;-91
2021/10/09 07:22:05;;;;;;;8.07;7.27;;;;;16.50;99273.00;;;;5041098;28;20190;-92
2021/10/09 07:24:52;;;;;;;7.73;7.13;;;;;16.40;99261.00;;;;5043401;28;20217;-91
2021/10/09 07:27:18;;;;;;;8.20;7.50;;;;;16.40;99270.00;;;;5057229;28;20302;-92
2021/10/09 07:29:46;;;;;;;8.07;7.37;;;;;16.40;99266.00;;;;5057344;28;20222;-90
2021/10/09 07:32:13;;;;;;;8.50;7.70;;;;;16.40;99273.00;;;;5040763;28;20198;-91
2021/10/09 07:34:39;;;;;;;8.73;7.93;;;;;16.40;99274.00;;;;5040714;28;20206;-90
2021/10/09 07:37:06;;;;;;;8.30;7.50;;;;;16.40;99281.00;;;;5040866;28;20191;-90
2021/10/09 07:39:32;;;;;;;8.43;7.73;;;;;16.40;99274.00;;;;5057290;28;20207;-90
2021/10/09 07:42:01;;;;;;;9.97;7.30;;;;;16.40;99273.00;;;;5040884;28;20531;-90
2021/10/09 07:44:27;;;;;;;11.40;7.47;;;;;16.50;99277.00;;;;5057576;28;20226;-90
2021/10/09 07:46:55;;;;;;;9.90;6.70;;;;;16.50;99276.00;;;;5041696;28;20395;-90
2021/10/09 07:49:21;;;;;;;10.07;7.50;;;;;16.50;99261.00;;;;5042801;28;20206;-90
2021/10/09 07:51:49;;;;;;;8.97;7.10;;;;;16.50;99280.00;;;;5057460;28;20300;-89
2021/10/09 07:54:16;;;;;;;8.77;7.07;;;;;16.50;99270.00;;;;5040893;28;20282;-89
2021/10/09 07:56:43;;;;;;;8.40;7.20;;;;;16.50;99278.00;;;;5057306;28;20199;-89
2021/10/09 07:59:09;;;;;;;8.27;7.37;;;;;16.60;99278.00;;;;5058042;28;20179;-90
2021/10/09 08:01:36;;;;;;;8.00;7.27;;;;;16.60;99272.00;;;;5040901;28;20193;-88
2021/10/09 08:04:04;;;;;;;10.27;7.97;;;;;16.60;99281.00;;;;5040913;28;20193;-89
2021/10/09 08:06:30;;;;;;;8.00;7.30;;;;;16.60;99285.00;;;;5041013;28;20507;-89
2021/10/09 08:08:57;;;;;;;8.20;7.40;;;;;16.60;99287.00;;;;5040822;28;20207;-90
2021/10/09 08:11:25;;;;;;;8.90;8.00;;;;;16.60;99266.00;;;;5040669;28;20273;-89
2021/10/09 08:13:51;;;;;;;8.30;7.50;;;;;16.70;99282.00;;;;5076220;28;20307;-88
2021/10/09 08:16:18;;;;;;;8.63;7.83;;;;;16.80;99278.00;;;;5061128;28;20195;-88
2021/10/09 08:18:45;;;;;;;7.63;6.93;;;;;16.80;99279.00;;;;5061545;28;20224;-86
2021/10/09 08:21:12;;;;;;;8.07;7.37;;;;;16.90;99276.00;;;;5046584;28;20330;-89
2021/10/09 08:23:52;;;;;;;8.03;7.33;;;;;16.80;99279.00;;;;5046767;28;20198;-88
2021/10/09 08:39:46;;;;;;;9.20;8.40;;;;;16.70;99282.00;;;;5078374;28;20568;-89
2021/10/09 08:42:13;;;;;;;8.33;7.63;;;;;16.80;99284.00;;;;5077620;28;20196;-89
2021/10/09 08:44:41;;;;;;;8.80;8.10;;;;;16.80;99288.00;;;;5045289;28;20190;-90
2021/10/09 08:47:11;;;;;;;8.60;7.73;;;;;16.80;99289.00;;;;5061962;28;20630;-89
2021/10/09 08:49:38;;;;;;;8.77;7.87;;;;;16.80;99289.00;;;;5060296;28;20188;-88
2021/10/09 08:52:05;;;;;;;8.67;7.80;;;;;16.80;99283.00;;;;5060530;28;20192;-90
2021/10/09 08:54:37;;;;;;;8.00;7.30;;;;;16.80;99288.00;;;;5060343;28;20192;-89
2021/10/09 08:57:15;;;;;;;8.37;7.57;;;;;16.80;99288.00;;;;5043776;28;20658;-88
2021/10/09 09:00:09;;;;;;;8.40;7.70;;;;;16.80;99292.00;;;;5060125;28;20233;-89
2021/10/09 09:02:46;;;;;;;8.40;7.60;;;;;16.70;99290.00;;;;5043305;28;20199;-89
2021/10/09 09:08:23;;;;;;;8.73;7.93;;;;;16.70;99291.00;;;;5077367;28;20200;-89
2021/10/09 09:30:31;;;;;;;7.53;6.93;;;;;16.70;99293.00;;;;5059251;28;20653;-89
2021/10/09 09:33:54;;;;;;;8.20;7.50;;;;;16.70;99280.00;;;;5075956;28;20199;-90
2021/10/09 09:36:49;;;;;;;8.30;7.60;;;;;16.70;99275.00;;;;5077094;28;20171;-89
2021/10/09 09:39:16;;;;;;;8.13;7.47;;;;;16.70;99283.00;;;;5075839;28;20203;-89
2021/10/09 09:41:50;;;;;;;8.00;7.30;;;;;16.70;99274.00;;;;5042653;28;20703;-89
2021/10/09 09:44:21;;;;;;;8.37;7.67;;;;;16.70;99271.00;;;;5043399;28;20199;-88
2021/10/09 09:47:04;;;;;;;7.93;7.23;;;;;16.80;99276.00;;;;5059062;28;20519;-89
2021/10/09 09:49:51;;;;;;;8.50;7.70;;;;;16.80;99277.00;;;;5075534;28;20204;-90
2021/10/09 09:52:20;;;;;;;8.67;7.90;;;;;16.80;99271.00;;;;5042714;28;20198;-89
2021/10/09 09:54:47;;;;;;;8.53;7.83;;;;;16.80;99280.00;;;;5058826;28;20691;-88
2021/10/09 09:57:14;;;;;;;8.43;7.73;;;;;16.80;99280.00;;;;5075387;28;20197;-87
2021/10/09 09:59:43;;;;;;;8.83;8.13;;;;;16.80;99281.00;;;;5058934;28;20196;-89
2021/10/09 10:02:10;;;;;;;8.97;8.27;;;;;16.80;99278.00;;;;5042164;28;20192;-86
2021/10/09 10:04:37;;;;;;;9.10;8.30;;;;;16.80;99281.00;;;;5075135;28;20290;-88
2021/10/09 10:07:04;;;;;;;9.30;8.50;;;;;16.90;99275.00;;;;5041890;28;20285;-88
2021/10/09 10:09:31;;;;;;;9.53;8.73;;;;;16.90;99261.00;;;;5058593;28;20204;-88
2021/10/09 10:12:06;;;;;;;10.27;9.40;;;;;16.90;99261.00;;;;5042154;28;20205;-88
2021/10/09 10:14:33;;;;;;;10.40;9.50;;;;;16.90;99280.00;;;;5076031;28;20178;-88
2021/10/09 10:17:00;;;;;;;10.90;9.87;;;;;16.90;99265.00;;;;5047355;28;20189;-88
2021/10/09 10:19:48;;;;;;;11.50;10.50;;;;;16.90;99271.00;;;;5048957;28;20191;-88
2021/10/09 10:22:42;;;;;;;10.93;10.03;;;;;16.90;99263.00;;;;5064339;28;20201;-88
2021/10/09 10:25:26;;;;;;;10.57;9.67;;;;;17.00;99270.00;;;;5061142;28;20211;-89
2021/10/09 10:28:19;;;;;;;13.40;11.90;;;;;16.90;99268.00;;;;5078088;28;20192;-89
2021/10/09 10:31:02;;;;;;;11.60;10.50;;;;;16.90;99263.00;;;;5046004;28;20198;-89
2021/10/09 10:33:41;;;;;;;12.10;11.00;;;;;16.90;99269.00;;;;5063384;28;20184;-89
2021/10/09 10:36:12;;;;;;;12.00;10.83;;;;;17.00;99259.00;;;;5079227;28;20607;-88
2021/10/09 10:38:48;;;;;;;11.50;10.40;;;;;17.10;99269.00;;;;5079611;28;20264;-87
2021/10/09 10:41:19;;;;;;;12.50;11.40;;;;;17.10;99245.00;;;;5062340;28;20211;-88
2021/10/09 10:43:49;;;;;;;11.37;10.27;;;;;17.20;99263.00;;;;5044547;28;20195;-88
2021/10/09 10:46:23;;;;;;;11.60;10.60;;;;;17.20;99261.00;;;;5077128;28;20270;-88
2021/10/09 10:49:21;;;;;;;11.80;10.70;;;;;17.20;99254.00;;;;5062481;28;20203;-88
2021/10/09 10:54:33;;;;;;;11.23;10.23;;;;;17.10;99254.00;;;;5074281;28;20201;-88
2021/10/09 10:57:01;;;;;;;10.63;9.73;;;;;17.10;99266.00;;;;5057525;28;20192;-88
2021/10/09 10:59:46;;;;;;;11.40;10.40;;;;;17.00;99262.00;;;;5074562;28;20186;-88
2021/10/09 11:02:23;;;;;;;10.73;9.70;;;;;17.00;99250.00;;;;5073696;28;20530;-86
2021/10/09 11:04:52;;;;;;;10.47;9.57;;;;;17.00;99259.00;;;;5078957;28;20176;-88
2021/10/09 11:07:24;;;;;;;10.20;9.37;;;;;17.00;99261.00;;;;5045862;28;20226;-88
2021/10/09 11:09:51;;;;;;;10.57;9.67;;;;;17.00;99253.00;;;;5063635;28;20172;-89
2021/10/09 11:12:33;;;;;;;10.23;9.40;;;;;16.90;99257.00;;;;5045808;28;20209;-89
2021/10/09 11:15:06;;;;;;;10.77;9.87;;;;;17.00;99261.00;;;;5047398;28;20193;-88
2021/10/09 11:17:37;;;;;;;10.67;9.77;;;;;17.00;99255.00;;;;5045541;28;20200;-89
2021/10/09 11:20:09;;;;;;;9.87;9.07;;;;;17.00;99254.00;;;;5062350;28;20631;-89
2021/10/09 11:22:42;;;;;;;10.27;9.37;;;;;17.00;99259.00;;;;5078033;28;20197;-87
2021/10/09 11:25:10;;;;;;;10.27;9.37;;;;;17.00;99259.00;;;;5046064;28;20189;-88
2021/10/09 11:27:38;;;;;;;9.40;8.60;;;;;17.00;99256.00;;;;5044864;28;20223;-89
2021/10/09 11:30:10;;;;;;;9.70;8.80;;;;;17.00;99254.00;;;;5076409;28;20208;-89
2021/10/09 11:32:39;;;;;;;10.03;9.13;;;;;17.00;99259.00;;;;5044009;28;20196;-89
2021/10/09 11:35:07;;;;;;;10.00;9.10;;;;;17.00;99255.00;;;;5043687;28;20202;-88
2021/10/09 11:37:44;;;;;;;9.27;8.47;;;;;17.00;99258.00;;;;5043012;28;20254;-90
2021/10/09 11:40:11;;;;;;;9.40;8.60;;;;;17.00;99257.00;;;;5061781;28;20685;-88
2021/10/09 11:42:56;;;;;;;9.13;8.33;;;;;17.00;99250.00;;;;5044374;28;20206;-87
2021/10/09 11:54:22;;;;;;;9.07;8.37;;;;;17.00;99261.00;;;;5065004;28;20215;-88
2021/10/09 11:56:43;;;;;;;9.27;8.33;;;;;17.00;99251.00;;;;5062605;28;20688;-86
2021/10/09 11:59:11;;;;;;;8.90;8.20;;;;;17.00;99253.00;;;;5081485;28;20192;-89
2021/10/09 12:01:43;;;;;;;8.87;8.13;;;;;17.00;99246.00;;;;5048158;28;20206;-89
2021/10/09 12:04:14;;;;;;;8.73;8.03;;;;;17.00;99252.00;;;;5080802;28;20196;-88
2021/10/09 12:06:41;;;;;;;8.73;7.93;;;;;17.00;99238.00;;;;5062169;28;20565;-89
2021/10/09 12:09:09;;;;;;;8.53;7.83;;;;;17.00;99249.00;;;;5062397;28;20253;-91
2021/10/09 12:11:37;;;;;;;9.17;8.37;;;;;17.00;99252.00;;;;5063520;28;20258;-87
2021/10/09 12:14:05;;;;;;;10.37;8.20;;;;;17.00;99249.00;;;;5048672;28;20221;-87
2021/10/09 12:16:38;;;;;;;8.53;7.83;;;;;17.00;99243.00;;;;5048735;28;20200;-90
2021/10/09 12:19:06;;;;;;;8.57;7.77;;;;;17.00;99250.00;;;;5082463;28;20195;-90
2021/10/09 12:21:51;;;;;;;9.17;8.37;;;;;16.90;99249.00;;;;5064772;28;20195;-89
2021/10/09 12:24:20;;;;;;;8.80;8.07;;;;;17.00;99240.00;;;;5080708;28;20199;-89
2021/10/09 12:27:12;;;;;;;9.73;8.93;;;;;17.10;99237.00;;;;5046944;28;20675;-89
2021/10/09 12:29:57;;;;;;;9.43;8.63;;;;;17.20;99244.00;;;;5047660;28;20188;-87
2021/10/09 12:32:24;;;;;;;9.90;8.90;;;;;17.20;99244.00;;;;5063868;28;20186;-89
2021/10/09 12:35:17;;;;;;;9.30;8.50;;;;;17.30;99241.00;;;;5064717;28;20208;-89
2021/10/09 12:37:54;;;;;;;9.10;8.20;;;;;17.30;99242.00;;;;5064787;28;20224;-89
2021/10/09 12:40:22;;;;;;;8.40;7.70;;;;;17.20;99233.00;;;;5066181;28;20200;-89
2021/10/09 12:42:51;;;;;;;9.00;8.13;;;;;17.20;99243.00;;;;5050501;28;20209;-89
2021/10/09 12:45:19;;;;;;;9.27;8.50;;;;;17.20;99246.00;;;;5080178;28;20626;-88
2021/10/09 12:47:54;;;;;;;8.53;7.73;;;;;17.10;99246.00;;;;5061688;28;20231;-89
2021/10/09 12:50:21;;;;;;;8.23;7.63;;;;;17.10;99238.00;;;;5079659;28;20197;-91
2021/10/09 12:52:47;;;;;;;8.13;7.53;;;;;17.10;99242.00;;;;5061180;28;20296;-87
2021/10/09 12:55:20;;;;;;;8.93;8.13;;;;;17.20;99247.00;;;;5063056;28;20267;-90
2021/10/09 12:57:50;;;;;;;8.50;7.70;;;;;17.20;99248.00;;;;5044646;28;20196;-89
2021/10/09 13:00:18;;;;;;;7.97;7.23;;;;;17.20;99250.00;;;;5061273;28;20188;-89
2021/10/09 13:02:45;;;;;;;8.57;7.70;;;;;17.20;99253.00;;;;5045134;28;20204;-88
2021/10/09 13:05:12;;;;;;;7.53;6.93;;;;;17.20;99248.00;;;;5045843;28;20262;-89
2021/10/09 13:07:38;;;;;;;8.20;7.50;;;;;17.20;99245.00;;;;5061856;28;20653;-90
2021/10/09 13:10:07;;;;;;;7.90;7.30;;;;;17.20;99238.00;;;;5044814;28;20203;-90
2021/10/09 13:12:33;;;;;;;8.20;7.50;;;;;17.20;99242.00;;;;5078881;28;20206;-89
2021/10/09 13:15:00;;;;;;;8.43;7.73;;;;;17.20;99236.00;;;;5044857;28;20199;-90
2021/10/09 13:17:33;;;;;;;8.10;7.50;;;;;17.20;99226.00;;;;5060691;28;20185;-88
2021/10/09 13:20:00;;;;;;;8.03;7.33;;;;;17.20;99235.00;;;;5043150;28;20203;-90
2021/10/09 13:22:26;;;;;;;8.00;7.30;;;;;17.20;99244.00;;;;5059584;28;20204;-90
2021/10/09 13:24:53;;;;;;;7.90;7.30;;;;;17.10;99224.00;;;;5077084;28;20283;-88
2021/10/09 13:27:19;;;;;;;7.53;6.93;;;;;17.10;99225.00;;;;5059433;28;20204;-90
2021/10/09 13:29:46;;;;;;;7.27;6.67;;;;;17.00;99214.00;;;;5043077;28;20206;-89
2021/10/09 13:32:12;;;;;;;7.57;6.83;;;;;17.00;99216.00;;;;5059454;28;20200;-90
2021/10/09 13:34:39;;;;;;;7.77;7.07;;;;;16.90;99227.00;;;;5059231;28;20200;-87
2021/10/09 13:37:05;;;;;;;7.90;7.30;;;;;16.90;99223.00;;;;5075816;28;20207;-89
2021/10/09 13:39:32;;;;;;;7.23;6.60;;;;;16.90;99227.00;;;;5042533;28;20207;-88
2021/10/09 13:41:58;;;;;;;7.60;7.00;;;;;16.90;99218.00;;;;5075994;28;20207;-88
2021/10/09 13:44:25;;;;;;;6.83;6.33;;;;;16.80;99220.00;;;;5042521;28;20310;-89
2021/10/09 13:46:52;;;;;;;7.73;7.03;;;;;16.80;99217.00;;;;5042630;28;20196;-89
2021/10/09 13:49:18;;;;;;;7.07;6.53;;;;;16.80;99213.00;;;;5058986;28;20273;-88
2021/10/09 13:51:45;;;;;;;7.77;7.17;;;;;16.80;99205.00;;;;5042356;28;20199;-90
2021/10/09 13:54:11;;;;;;;7.87;7.27;;;;;16.80;99215.00;;;;5042333;28;20230;-88
2021/10/09 13:56:38;;;;;;;7.47;6.87;;;;;16.80;99202.00;;;;5076411;28;20198;-88
2021/10/09 13:59:05;;;;;;;7.83;7.17;;;;;16.80;99201.00;;;;5058923;28;20204;-89
2021/10/09 14:01:40;;;;;;;7.77;7.17;;;;;16.80;99214.00;;;;5075317;28;20206;-88
2021/10/09 14:04:08;;;;;;;7.33;6.73;;;;;16.80;99213.00;;;;5075310;28;20290;-88
2021/10/09 14:06:35;;;;;;;7.50;6.90;;;;;16.80;99197.00;;;;5076472;28;20193;-87
2021/10/09 14:09:03;;;;;;;7.60;7.00;;;;;16.80;99203.00;;;;5076661;28;20225;-88
2021/10/09 14:11:30;;;;;;;7.30;6.63;;;;;16.80;99191.00;;;;5042021;28;20199;-88
2021/10/09 14:13:57;;;;;;;7.90;7.20;;;;;16.80;99195.00;;;;5058589;28;20622;-88
2021/10/09 14:16:24;;;;;;;7.37;6.87;;;;;16.80;99196.00;;;;5058635;28;20644;-87
2021/10/09 14:18:50;;;;;;;7.57;6.90;;;;;16.80;99191.00;;;;5042035;28;20286;-88
2021/10/09 14:21:17;;;;;;;7.67;7.07;;;;;16.80;99201.00;;;;5058831;28;20279;-88